Skip Navigation Links Skip Navigation Links

Current Weather

Grosse Ile Muni, Detroit/Grosse Ile, Mich.

For information only: do not use for flight planning or navigation.
Latest weather
Observation time Thursday, October 17, 2019 1:35 AM EDT
Local time Thursday, October 17, 2019 1:49 AM EDT
Flight conditions Visual Meteorological Conditions
Winds
Wind direction Northwest (310°)
Wind speed 13 mph
Wind gusting to 23 mph
Visibility 10 mi.
Sky condition
Ceiling 3,000 ft. broken clouds
Cloud layer broken clouds 3,000 ft.
Cloud layer overcast 3,600 ft.
Temperature 47°F
Dewpoint 38°F
Altimeter 29.78 in.Hg
Derived measurements
Relative humidity 70%
Wind chill 41°F
Density altitude 63 ft.
Remarks
Fully automated report.
Automated weather observing station with precipitation discriminator.
METAR KONZ 170535Z AUTO 31011G20KT 10SM BKN030 OVC036 08/03 A2978 RMK AO2 T00830031

Settings

Location code

InnerDrive.Weather 4.0.6770.0 Release CLR 4.0.30319.42000
Copyright ©2018 Inner Drive Technology. All rights reserved. Portions Copyright ©1986-2018 David Braverman.

Find weather

Site navigation


Skip Navigation Links

Place info

Page info

PayPal - The safer, easier way to pay online!

Return home.

Copyright ©2019 Inner Drive Technology. Purveyors of fine, hand-crafted computer software. Page printed 2019-10-17T05:49:50 UTC.